Time;durP1;ratioP1;P1;durP2;ratioP2;P2;SDS_P1;SDS_P2;PMS_P1;PMS_P2;Temp;Humidity;BMP_temperature;BMP_pressure;BME280_temperature;BME280_humidity;BME280_pressure;Samples;Min_cycle;Max_cycle;Signal;HPM_P1;HPM_P2
2023/09/06 00:02:06;;;;;;;2.65;1.50;;;25.90;76.60;;;;;;5053677;28;20025;-81
2023/09/06 00:04:33;;;;;;;3.15;1.42;;;25.90;76.40;;;;;;5036693;28;20032;-82
2023/09/06 00:06:59;;;;;;;1.70;1.05;;;25.90;76.30;;;;;;5052240;28;20527;-82
2023/09/06 00:09:24;;;;;;;2.00;0.95;;;26.00;76.30;;;;;;5035891;28;20051;-82
2023/09/06 00:11:50;;;;;;;2.88;1.17;;;26.00;76.20;;;;;;5053632;28;20482;-82
2023/09/06 00:14:16;;;;;;;2.35;1.10;;;25.90;76.10;;;;;;5054007;28;20063;-81
2023/09/06 00:16:46;;;;;;;2.85;1.10;;;25.90;76.10;;;;;;5052371;28;20428;-81
2023/09/06 00:19:14;;;;;;;4.43;1.38;;;26.00;76.00;;;;;;5053966;28;20037;-81
2023/09/06 00:21:42;;;;;;;3.38;1.10;;;26.00;75.90;;;;;;5053484;28;20303;-82
2023/09/06 00:24:12;;;;;;;5.28;1.30;;;25.90;76.00;;;;;;5054417;28;20032;-81
2023/09/06 00:26:41;;;;;;;3.30;1.10;;;25.90;76.00;;;;;;5053259;28;20029;-81
2023/09/06 00:29:07;;;;;;;2.80;1.10;;;25.80;75.90;;;;;;5035207;28;20075;-81
2023/09/06 00:31:36;;;;;;;1.65;0.90;;;25.80;76.10;;;;;;5036100;28;20044;-81
2023/09/06 00:34:02;;;;;;;1.73;0.90;;;25.80;76.40;;;;;;5051432;28;20072;-80
2023/09/06 00:36:29;;;;;;;1.70;1.40;;;25.80;76.30;;;;;;5053020;28;20028;-80
2023/09/06 00:38:59;;;;;;;1.83;0.93;;;25.80;76.50;;;;;;5052230;28;20082;-80
2023/09/06 00:41:26;;;;;;;3.22;1.73;;;25.80;76.60;;;;;;5053548;28;20108;-81
2023/09/06 00:43:52;;;;;;;4.85;1.15;;;25.70;76.30;;;;;;5052982;28;20036;-81
2023/09/06 00:46:19;;;;;;;2.95;1.45;;;25.70;76.40;;;;;;5052102;28;20378;-81
2023/09/06 00:48:50;;;;;;;2.75;1.38;;;25.70;76.50;;;;;;5034980;28;20021;-81
2023/09/06 00:51:16;;;;;;;1.70;1.17;;;25.60;76.90;;;;;;5051870;28;20057;-82
2023/09/06 00:53:43;;;;;;;2.03;1.30;;;25.50;76.80;;;;;;5053174;28;20135;-81
2023/09/06 00:56:09;;;;;;;3.67;1.17;;;25.50;76.70;;;;;;5053332;28;20052;-82
2023/09/06 00:58:36;;;;;;;4.10;1.30;;;25.50;76.70;;;;;;5052346;28;20119;-82
2023/09/06 01:01:05;;;;;;;2.22;0.90;;;25.40;76.60;;;;;;5053314;28;20053;-81
2023/09/06 01:03:32;;;;;;;2.53;1.20;;;25.40;76.90;;;;;;5035157;28;20025;-82
2023/09/06 01:06:15;;;;;;;1.63;1.00;;;25.40;76.80;;;;;;5051655;28;20032;-81
2023/09/06 01:08:56;;;;;;;3.47;1.05;;;25.50;76.60;;;;;;5053251;28;20035;-81
2023/09/06 01:11:24;;;;;;;1.75;1.30;;;25.50;76.70;;;;;;5052853;28;20044;-81
2023/09/06 01:13:59;;;;;;;4.18;1.17;;;25.60;76.60;;;;;;5052750;28;20037;-82
2023/09/06 01:16:26;;;;;;;3.42;1.27;;;25.50;76.70;;;;;;5052725;28;20381;-81
2023/09/06 01:18:53;;;;;;;3.10;1.15;;;25.50;76.60;;;;;;5054805;28;20112;-82
2023/09/06 01:21:20;;;;;;;2.53;1.27;;;25.50;76.70;;;;;;5055261;28;20032;-82
2023/09/06 01:23:47;;;;;;;1.60;1.40;;;25.50;76.70;;;;;;5056547;28;20116;-82
2023/09/06 01:26:13;;;;;;;3.00;1.25;;;25.40;76.50;;;;;;5056523;28;20033;-81
2023/09/06 01:28:39;;;;;;;2.13;0.90;;;25.40;76.60;;;;;;5056164;28;20075;-81
2023/09/06 01:31:05;;;;;;;2.15;1.15;;;25.40;76.90;;;;;;5055301;28;20055;-81
2023/09/06 01:33:31;;;;;;;2.67;1.15;;;25.40;76.90;;;;;;5055219;28;20108;-82
2023/09/06 01:35:57;;;;;;;5.97;1.33;;;25.40;76.90;;;;;;5055127;28;20076;-81
2023/09/06 01:38:23;;;;;;;4.18;1.17;;;25.40;76.50;;;;;;5056228;28;20154;-82
2023/09/06 01:40:49;;;;;;;1.80;0.98;;;25.50;76.40;;;;;;5038425;28;20025;-81
2023/09/06 01:43:14;;;;;;;2.38;1.00;;;25.40;76.50;;;;;;5055017;28;20363;-82
2023/09/06 01:45:50;;;;;;;2.50;1.25;;;25.40;76.80;;;;;;5055006;28;20032;-82
2023/09/06 01:48:17;;;;;;;3.38;1.20;;;25.40;77.10;;;;;;5038134;28;20040;-82
2023/09/06 01:50:43;;;;;;;4.38;0.80;;;25.40;76.80;;;;;;5055886;28;20028;-81
2023/09/06 01:53:09;;;;;;;2.20;1.00;;;25.40;76.50;;;;;;5055133;28;20109;-82
2023/09/06 01:55:34;;;;;;;5.70;1.77;;;25.40;76.40;;;;;;5037853;28;20086;-82
2023/09/06 01:58:00;;;;;;;4.03;0.95;;;25.30;76.30;;;;;;5056506;28;20055;-82
2023/09/06 02:00:31;;;;;;;2.08;1.02;;;25.30;76.70;;;;;;5038329;28;20032;-81
2023/09/06 02:02:57;;;;;;;2.42;1.15;;;25.20;76.70;;;;;;5056075;28;20457;-82
2023/09/06 02:05:23;;;;;;;3.13;1.23;;;25.20;77.10;;;;;;5037577;28;20032;-81
2023/09/06 02:07:49;;;;;;;4.47;1.05;;;25.10;77.30;;;;;;5055757;28;20033;-82
2023/09/06 02:10:16;;;;;;;1.50;0.93;;;25.10;77.80;;;;;;5055662;28;20102;-81
2023/09/06 02:12:41;;;;;;;1.77;1.15;;;25.10;77.90;;;;;;5055343;28;20104;-82
2023/09/06 02:15:08;;;;;;;5.03;1.13;;;25.10;77.60;;;;;;5055612;28;20116;-81
2023/09/06 02:17:35;;;;;;;2.67;1.05;;;25.10;77.50;;;;;;5038050;28;20037;-82
2023/09/06 02:20:17;;;;;;;2.53;1.00;;;25.10;77.20;;;;;;5055432;28;20037;-82
2023/09/06 02:22:46;;;;;;;1.73;0.85;;;25.10;77.30;;;;;;5038126;28;20568;-82
2023/09/06 02:25:13;;;;;;;4.60;1.00;;;25.00;77.50;;;;;;5054085;28;20036;-81
2023/09/06 02:27:40;;;;;;;4.25;1.23;;;25.00;77.50;;;;;;5053879;28;20033;-82
2023/09/06 02:30:06;;;;;;;1.70;0.90;;;25.00;77.50;;;;;;5055058;28;20075;-81
2023/09/06 02:32:34;;;;;;;1.17;0.93;;;24.80;77.70;;;;;;5055046;28;20162;-81
2023/09/06 02:35:00;;;;;;;4.20;0.80;;;24.80;78.00;;;;;;5037349;28;20141;-82
2023/09/06 02:37:26;;;;;;;1.00;0.63;;;24.70;78.10;;;;;;5037142;28;20040;-81
2023/09/06 02:39:54;;;;;;;2.70;1.00;;;24.70;78.30;;;;;;5054860;28;20025;-81
2023/09/06 02:42:20;;;;;;;4.05;1.35;;;24.70;78.00;;;;;;5055213;28;20111;-81
2023/09/06 02:44:46;;;;;;;2.63;1.25;;;24.60;78.00;;;;;;5037151;28;20048;-81
2023/09/06 02:47:15;;;;;;;4.70;1.10;;;24.60;78.20;;;;;;5037066;28;20163;-82
2023/09/06 02:49:45;;;;;;;1.70;0.98;;;24.70;77.90;;;;;;5055468;28;20450;-81
2023/09/06 02:52:29;;;;;;;2.15;0.90;;;24.70;78.10;;;;;;5054593;28;20045;-81
2023/09/06 02:54:59;;;;;;;2.97;0.93;;;24.70;78.10;;;;;;5055097;28;20100;-81
2023/09/06 02:57:26;;;;;;;1.65;0.90;;;24.70;78.30;;;;;;5054686;28;20112;-81
2023/09/06 02:59:52;;;;;;;1.95;0.80;;;24.70;78.30;;;;;;5054469;28;20116;-81
2023/09/06 03:02:21;;;;;;;1.38;0.85;;;24.70;78.40;;;;;;5036730;28;20025;-81
2023/09/06 03:04:49;;;;;;;2.00;1.10;;;24.80;78.40;;;;;;5053225;28;20032;-82
2023/09/06 03:07:15;;;;;;;1.80;1.33;;;24.80;78.20;;;;;;5054688;28;20147;-82
2023/09/06 03:09:42;;;;;;;1.52;0.82;;;24.70;78.20;;;;;;5054857;28;20060;-81
2023/09/06 03:12:11;;;;;;;1.33;0.98;;;24.70;78.00;;;;;;5036654;28;20049;-82
2023/09/06 03:14:48;;;;;;;2.10;1.48;;;24.70;78.50;;;;;;5054493;28;20017;-82
2023/09/06 03:17:22;;;;;;;2.72;1.00;;;24.70;78.20;;;;;;5036419;28;20037;-82
2023/09/06 03:19:53;;;;;;;2.92;1.52;;;24.60;78.40;;;;;;5036788;28;20359;-82
2023/09/06 03:22:21;;;;;;;2.40;1.30;;;24.60;78.10;;;;;;5054298;28;20025;-82
2023/09/06 03:24:48;;;;;;;2.28;1.55;;;24.60;78.10;;;;;;5052901;28;20029;-82
2023/09/06 03:27:17;;;;;;;3.35;1.60;;;24.60;78.30;;;;;;5053391;28;20036;-82
2023/09/06 03:29:50;;;;;;;1.60;1.13;;;24.60;78.40;;;;;;5054519;28;20424;-82
2023/09/06 03:32:17;;;;;;;2.88;1.27;;;24.60;78.50;;;;;;5054375;28;20025;-81
2023/09/06 03:34:45;;;;;;;1.60;1.13;;;24.60;78.60;;;;;;5054142;28;20485;-82
2023/09/06 03:37:11;;;;;;;2.30;1.13;;;24.60;78.80;;;;;;5020597;28;20120;-82
2023/09/06 03:39:41;;;;;;;2.13;1.10;;;24.50;78.80;;;;;;5054018;28;20032;-82
2023/09/06 03:42:10;;;;;;;1.77;1.23;;;24.50;79.30;;;;;;5035421;28;20054;-82
2023/09/06 03:44:39;;;;;;;1.90;0.90;;;24.60;79.30;;;;;;5054600;28;20026;-82
2023/09/06 03:47:13;;;;;;;1.40;0.98;;;24.50;79.20;;;;;;5036377;28;20061;-82
2023/09/06 03:49:40;;;;;;;1.83;0.80;;;24.60;79.60;;;;;;5037346;28;20021;-83
2023/09/06 03:52:07;;;;;;;1.27;0.68;;;24.60;79.60;;;;;;5054040;28;20087;-83
2023/09/06 03:54:35;;;;;;;1.48;0.90;;;24.60;79.80;;;;;;5041376;28;20152;-84
2023/09/06 03:57:02;;;;;;;1.90;1.00;;;24.60;80.00;;;;;;5057036;28;20033;-83
2023/09/06 03:59:27;;;;;;;2.13;1.33;;;24.60;80.00;;;;;;5058179;28;20029;-84
2023/09/06 04:01:55;;;;;;;2.05;1.42;;;24.60;80.00;;;;;;5041426;28;20040;-84
2023/09/06 04:04:21;;;;;;;4.75;1.60;;;24.60;79.20;;;;;;5039919;28;20021;-82
2023/09/06 04:06:47;;;;;;;3.60;1.80;;;24.50;78.90;;;;;;5057138;28;20132;-82
2023/09/06 04:09:13;;;;;;;3.25;1.95;;;24.50;78.50;;;;;;5057976;28;20481;-83
2023/09/06 04:11:42;;;;;;;2.47;2.05;;;24.40;78.50;;;;;;5061292;28;20029;-84
2023/09/06 04:14:08;;;;;;;3.05;1.75;;;24.30;78.70;;;;;;5040002;28;20025;-83
2023/09/06 04:16:37;;;;;;;3.50;1.98;;;24.20;78.90;;;;;;5039961;28;20037;-83
2023/09/06 04:19:05;;;;;;;4.20;2.20;;;24.10;79.20;;;;;;5058540;28;20431;-82
2023/09/06 04:21:31;;;;;;;3.65;2.17;;;24.10;79.40;;;;;;5053603;28;20021;-82
2023/09/06 04:23:56;;;;;;;1.95;1.20;;;24.00;79.50;;;;;;5053714;28;20032;-82
2023/09/06 04:26:22;;;;;;;1.40;1.17;;;24.00;79.80;;;;;;5053227;28;20032;-82
2023/09/06 04:28:48;;;;;;;1.20;0.90;;;23.90;80.50;;;;;;5052239;28;20029;-82
2023/09/06 04:31:17;;;;;;;1.40;0.80;;;23.90;80.90;;;;;;5053331;28;20025;-81
2023/09/06 04:33:44;;;;;;;1.60;1.10;;;24.00;81.20;;;;;;5052047;28;20049;-81
2023/09/06 04:36:09;;;;;;;1.92;1.13;;;24.00;81.50;;;;;;5035324;28;20500;-81
2023/09/06 04:38:35;;;;;;;4.30;1.45;;;24.00;81.70;;;;;;5035409;28;20124;-82
2023/09/06 04:41:02;;;;;;;2.22;1.27;;;24.00;81.50;;;;;;5053049;28;20071;-81
2023/09/06 04:43:28;;;;;;;1.85;1.02;;;24.10;81.30;;;;;;5053314;28;20025;-81
2023/09/06 04:45:54;;;;;;;1.42;1.17;;;24.00;81.40;;;;;;5035748;28;20086;-81
2023/09/06 04:48:23;;;;;;;2.47;1.55;;;24.10;81.60;;;;;;5035375;28;20424;-82
2023/09/06 04:50:49;;;;;;;4.35;1.30;;;24.00;81.50;;;;;;5052457;28;20032;-82
2023/09/06 04:53:18;;;;;;;1.50;1.02;;;24.10;81.70;;;;;;5037269;28;20049;-82
2023/09/06 04:55:44;;;;;;;4.35;1.38;;;24.10;81.80;;;;;;5057020;28;20032;-82
2023/09/06 04:58:11;;;;;;;2.03;1.15;;;24.10;81.80;;;;;;5022833;28;20393;-82
2023/09/06 05:00:41;;;;;;;5.57;1.50;;;24.10;81.80;;;;;;5039021;28;20453;-80
2023/09/06 05:03:13;;;;;;;3.28;1.20;;;24.00;81.20;;;;;;5038715;28;20028;-79
2023/09/06 05:05:40;;;;;;;4.22;1.52;;;24.00;81.40;;;;;;5057259;28;20079;-80
2023/09/06 05:08:07;;;;;;;4.35;1.83;;;24.00;81.80;;;;;;5056677;28;20452;-79
2023/09/06 05:10:35;;;;;;;4.00;1.33;;;24.00;81.70;;;;;;5038763;28;20461;-79
2023/09/06 05:13:01;;;;;;;2.42;1.17;;;24.00;82.00;;;;;;5039075;28;20025;-79
2023/09/06 05:15:27;;;;;;;2.60;1.45;;;24.00;82.20;;;;;;5062105;28;20032;-83
2023/09/06 05:17:53;;;;;;;2.40;1.48;;;24.00;82.10;;;;;;5057795;28;20031;-80
2023/09/06 05:20:27;;;;;;;5.18;1.90;;;24.10;82.20;;;;;;5056894;28;20029;-80
2023/09/06 05:22:58;;;;;;;2.10;1.90;;;24.10;81.70;;;;;;5038872;28;20021;-81
2023/09/06 05:25:25;;;;;;;4.57;2.00;;;24.00;81.30;;;;;;5056558;28;20131;-81
2023/09/06 05:27:54;;;;;;;3.42;1.58;;;23.90;80.90;;;;;;5056544;28;20040;-80
2023/09/06 05:30:19;;;;;;;3.22;1.88;;;23.90;81.30;;;;;;5056958;28;20021;-80
2023/09/06 05:32:45;;;;;;;2.35;1.50;;;23.90;81.40;;;;;;5038377;28;20033;-81
2023/09/06 05:35:11;;;;;;;4.07;1.92;;;23.80;81.40;;;;;;5056936;28;20112;-80
2023/09/06 05:37:38;;;;;;;2.20;1.50;;;23.80;81.70;;;;;;5055002;28;20033;-81
2023/09/06 05:40:04;;;;;;;3.72;1.80;;;23.70;82.00;;;;;;5039193;28;20128;-81
2023/09/06 05:42:30;;;;;;;2.47;1.92;;;23.60;82.30;;;;;;5057702;28;20025;-82
2023/09/06 05:44:56;;;;;;;3.40;1.40;;;23.60;82.60;;;;;;5040412;28;20359;-83
2023/09/06 05:47:22;;;;;;;4.70;2.38;;;23.60;82.90;;;;;;5055817;28;20044;-82
2023/09/06 05:49:52;;;;;;;2.70;1.48;;;23.50;82.70;;;;;;5059815;28;20030;-84
2023/09/06 05:52:18;;;;;;;3.47;1.27;;;23.50;83.10;;;;;;5062857;28;20041;-84
2023/09/06 05:54:44;;;;;;;5.25;1.88;;;23.60;83.50;;;;;;5063491;28;20029;-84
2023/09/06 05:57:10;;;;;;;6.95;2.70;;;23.60;83.30;;;;;;5064429;28;20029;-85
2023/09/06 05:59:36;;;;;;;7.07;2.35;;;23.60;82.80;;;;;;5065420;28;20033;-84
2023/09/06 06:02:02;;;;;;;3.20;1.90;;;23.50;83.10;;;;;;5063520;28;20347;-84
2023/09/06 06:04:28;;;;;;;5.10;3.17;;;23.50;83.20;;;;;;5066685;28;20108;-84
2023/09/06 06:06:54;;;;;;;3.63;2.30;;;23.50;83.20;;;;;;5030752;28;20044;-84
2023/09/06 06:09:21;;;;;;;8.32;2.90;;;23.60;82.90;;;;;;5063502;28;20036;-83
2023/09/06 06:11:47;;;;;;;3.00;2.20;;;23.60;82.70;;;;;;5065049;28;20458;-84
2023/09/06 06:14:13;;;;;;;7.07;2.78;;;23.50;83.00;;;;;;5064407;28;20073;-86
2023/09/06 06:16:39;;;;;;;5.18;2.67;;;23.40;83.10;;;;;;5055877;28;20044;-87
2023/09/06 06:19:05;;;;;;;3.63;2.60;;;23.50;83.20;;;;;;5054714;28;20036;-86
2023/09/06 06:21:31;;;;;;;5.45;2.30;;;23.50;83.40;;;;;;5055008;28;20029;-85
2023/09/06 06:23:58;;;;;;;4.80;3.10;;;23.50;83.00;;;;;;5055981;28;20477;-86
2023/09/06 06:26:23;;;;;;;4.32;2.65;;;23.50;83.00;;;;;;5037934;28;20385;-86
2023/09/06 06:28:49;;;;;;;4.57;2.50;;;23.50;83.30;;;;;;5054302;28;20029;-86
2023/09/06 06:31:15;;;;;;;7.60;3.13;;;23.50;83.30;;;;;;5054345;28;20033;-86
2023/09/06 06:33:43;;;;;;;6.22;3.30;;;23.50;83.20;;;;;;5055267;28;20390;-85
2023/09/06 06:36:08;;;;;;;3.78;2.83;;;23.40;83.20;;;;;;5037375;28;20040;-86
2023/09/06 06:38:34;;;;;;;8.40;3.65;;;23.50;83.60;;;;;;5037386;28;20037;-86
2023/09/06 06:41:00;;;;;;;6.50;3.65;;;23.40;83.80;;;;;;5037363;28;20110;-86
2023/09/06 06:43:27;;;;;;;3.92;2.58;;;23.40;84.00;;;;;;5055263;28;20107;-86
2023/09/06 06:45:54;;;;;;;4.18;1.60;;;23.40;83.50;;;;;;5054963;28;20420;-84
2023/09/06 06:48:20;;;;;;;6.25;2.22;;;23.50;83.70;;;;;;5055000;28;20137;-84
2023/09/06 06:50:46;;;;;;;4.40;2.47;;;23.70;83.60;;;;;;5053759;28;20484;-84
2023/09/06 06:53:11;;;;;;;4.38;2.55;;;23.80;83.20;;;;;;5054932;28;20057;-85
2023/09/06 06:55:38;;;;;;;3.85;3.15;;;23.80;82.70;;;;;;5054511;28;20044;-84
2023/09/06 06:58:06;;;;;;;6.07;2.47;;;23.80;82.30;;;;;;5054777;28;20538;-84
2023/09/06 07:00:31;;;;;;;5.00;2.72;;;23.90;81.90;;;;;;5054741;28;20051;-84
2023/09/06 07:03:00;;;;;;;6.85;2.88;;;23.90;82.10;;;;;;5054804;28;20520;-84
2023/09/06 07:05:27;;;;;;;5.00;3.00;;;23.90;81.90;;;;;;5054012;28;20140;-83
2023/09/06 07:07:53;;;;;;;3.15;2.50;;;23.90;82.10;;;;;;5053375;28;20029;-85
2023/09/06 07:10:19;;;;;;;3.45;2.45;;;23.90;83.10;;;;;;5054658;28;20029;-84
2023/09/06 07:12:45;;;;;;;6.20;2.92;;;24.00;82.80;;;;;;5055326;28;20033;-83
2023/09/06 07:15:11;;;;;;;6.60;2.70;;;24.10;82.10;;;;;;5054074;28;20033;-85
2023/09/06 07:17:37;;;;;;;4.55;2.85;;;24.10;82.40;;;;;;5053895;28;20037;-84
2023/09/06 07:20:05;;;;;;;6.82;2.53;;;24.10;83.20;;;;;;5053463;28;20355;-84
2023/09/06 07:22:30;;;;;;;4.38;2.33;;;24.10;84.00;;;;;;5054364;28;20158;-84
2023/09/06 07:24:56;;;;;;;2.67;2.28;;;24.20;84.10;;;;;;5053330;28;20103;-84
2023/09/06 07:27:22;;;;;;;6.57;2.75;;;24.20;83.30;;;;;;5036125;28;20033;-83
2023/09/06 07:29:48;;;;;;;7.35;2.95;;;24.30;83.60;;;;;;5055217;28;20029;-83
2023/09/06 07:32:14;;;;;;;4.70;3.13;;;24.20;83.20;;;;;;5057811;28;20032;-84
2023/09/06 07:34:39;;;;;;;7.22;3.20;;;24.30;83.10;;;;;;5057684;28;20081;-84
2023/09/06 07:37:05;;;;;;;10.63;4.40;;;24.40;83.60;;;;;;5056935;28;20033;-83
2023/09/06 07:39:31;;;;;;;7.32;3.42;;;24.50;83.50;;;;;;5057428;28;20029;-84
2023/09/06 07:41:57;;;;;;;5.03;2.80;;;24.60;83.40;;;;;;5057250;28;20025;-84
2023/09/06 07:44:22;;;;;;;4.35;2.67;;;24.60;82.20;;;;;;5056699;28;20465;-84
2023/09/06 07:46:48;;;;;;;3.95;2.60;;;24.70;83.00;;;;;;5054890;28;20028;-83
2023/09/06 07:49:16;;;;;;;4.28;2.67;;;24.70;82.20;;;;;;5054192;28;20029;-84
2023/09/06 07:51:41;;;;;;;4.32;2.80;;;24.70;82.50;;;;;;5053135;28;20040;-83
2023/09/06 07:54:07;;;;;;;4.07;2.55;;;24.80;82.10;;;;;;5054171;28;20033;-84
2023/09/06 07:56:33;;;;;;;3.78;2.60;;;24.90;82.00;;;;;;5053625;28;20179;-84
2023/09/06 07:58:59;;;;;;;5.65;2.50;;;24.90;82.40;;;;;;5053782;28;20033;-84
2023/09/06 08:01:25;;;;;;;3.83;2.60;;;25.00;82.20;;;;;;5053372;28;20474;-85
2023/09/06 08:03:51;;;;;;;5.05;2.75;;;25.10;82.50;;;;;;5054073;28;20033;-85
2023/09/06 08:06:17;;;;;;;7.20;2.63;;;25.20;81.40;;;;;;5035769;28;20036;-85
2023/09/06 08:08:43;;;;;;;7.45;2.60;;;25.10;81.70;;;;;;5053346;28;20028;-84
2023/09/06 08:11:09;;;;;;;7.97;2.25;;;25.10;81.90;;;;;;5035457;28;20025;-86
2023/09/06 08:13:37;;;;;;;4.63;2.08;;;25.20;83.00;;;;;;5053703;28;20043;-84
2023/09/06 08:16:03;;;;;;;5.20;2.58;;;25.30;82.70;;;;;;5053674;28;20107;-85
2023/09/06 08:18:29;;;;;;;4.70;2.30;;;25.40;81.30;;;;;;5035567;28;20030;-83
2023/09/06 08:20:54;;;;;;;7.22;4.43;;;25.50;81.70;;;;;;5052849;28;20074;-84
2023/09/06 08:23:20;;;;;;;4.40;2.50;;;25.50;81.40;;;;;;5052890;28;20036;-85
2023/09/06 08:25:46;;;;;;;2.95;2.00;;;25.50;81.00;;;;;;5052683;28;20115;-84
2023/09/06 08:28:15;;;;;;;5.35;1.77;;;25.60;80.90;;;;;;5054363;28;20025;-84
2023/09/06 08:30:43;;;;;;;5.40;2.28;;;25.80;81.20;;;;;;5058000;28;20061;-83
2023/09/06 08:33:09;;;;;;;2.97;2.10;;;26.00;81.70;;;;;;5057351;28;20104;-84
2023/09/06 08:35:35;;;;;;;2.67;2.30;;;26.10;81.50;;;;;;5057532;28;20152;-84
2023/09/06 08:38:01;;;;;;;5.93;2.50;;;26.30;80.30;;;;;;5057663;28;20097;-84
2023/09/06 08:40:26;;;;;;;4.53;2.38;;;26.30;80.20;;;;;;5057759;28;20524;-84
2023/09/06 08:42:55;;;;;;;5.70;2.28;;;26.40;79.60;;;;;;5057900;28;20072;-84
2023/09/06 08:45:21;;;;;;;6.10;1.90;;;26.40;78.90;;;;;;5058658;28;20048;-85
2023/09/06 08:47:48;;;;;;;3.00;1.92;;;26.40;80.50;;;;;;5056980;28;20025;-84
2023/09/06 08:50:14;;;;;;;1.95;1.67;;;26.50;80.00;;;;;;5057115;28;20120;-84
2023/09/06 08:52:42;;;;;;;5.47;1.95;;;26.70;78.80;;;;;;5057103;28;20049;-84
2023/09/06 08:55:11;;;;;;;4.22;1.77;;;26.80;77.80;;;;;;5056903;28;20389;-83
2023/09/06 08:57:38;;;;;;;2.40;2.00;;;26.80;77.20;;;;;;5039106;28;20083;-85
2023/09/06 09:00:08;;;;;;;2.97;1.75;;;26.90;76.90;;;;;;5057131;28;20040;-84
2023/09/06 09:02:33;;;;;;;3.72;2.00;;;26.90;77.90;;;;;;5056728;28;20469;-84
2023/09/06 09:05:00;;;;;;;3.75;1.55;;;27.00;78.40;;;;;;5055887;28;20033;-80
2023/09/06 09:07:26;;;;;;;3.67;1.92;;;27.20;79.00;;;;;;5056474;28;20116;-83
2023/09/06 09:09:56;;;;;;;3.45;2.13;;;27.30;78.90;;;;;;5039153;28;20120;-83
2023/09/06 09:12:41;;;;;;;4.07;1.83;;;27.40;79.20;;;;;;5038919;28;20120;-82
2023/09/06 09:15:07;;;;;;;4.25;1.75;;;27.40;78.50;;;;;;5057132;28;20029;-82
2023/09/06 09:17:34;;;;;;;2.45;1.55;;;27.50;78.50;;;;;;5038641;28;20370;-82
2023/09/06 09:20:00;;;;;;;7.07;1.75;;;27.50;79.30;;;;;;5056718;28;20086;-83
2023/09/06 09:22:32;;;;;;;2.47;1.58;;;27.60;77.40;;;;;;5055124;28;20033;-82
2023/09/06 09:25:14;;;;;;;6.53;2.80;;;27.80;77.10;;;;;;5056533;28;20458;-83
2023/09/06 09:27:42;;;;;;;5.32;2.80;;;27.80;75.20;;;;;;5056645;28;20087;-81
2023/09/06 09:30:09;;;;;;;4.43;3.30;;;27.80;75.40;;;;;;5057715;28;20025;-83
2023/09/06 09:32:35;;;;;;;6.47;3.20;;;27.90;76.60;;;;;;5057018;28;20049;-83
2023/09/06 09:35:02;;;;;;;9.95;3.63;;;28.10;78.10;;;;;;5056731;28;20065;-83
2023/09/06 09:37:30;;;;;;;7.30;3.45;;;28.20;75.30;;;;;;5056036;28;20097;-82
2023/09/06 09:39:56;;;;;;;5.22;3.08;;;28.30;76.60;;;;;;5053650;28;20036;-82
2023/09/06 09:42:22;;;;;;;6.95;2.90;;;28.40;76.70;;;;;;5056133;28;20051;-83
2023/09/06 09:45:02;;;;;;;6.05;2.20;;;28.40;73.60;;;;;;5054998;28;20028;-82
2023/09/06 09:47:29;;;;;;;3.15;2.00;;;28.50;74.20;;;;;;5056001;28;20029;-82
2023/09/06 09:49:56;;;;;;;7.22;1.95;;;28.60;74.10;;;;;;5055777;28;20362;-82
2023/09/06 09:52:25;;;;;;;2.92;1.70;;;28.70;74.70;;;;;;5055438;28;20056;-82
2023/09/06 09:54:51;;;;;;;3.75;1.40;;;28.80;74.90;;;;;;5056195;28;20029;-82
2023/09/06 09:57:21;;;;;;;5.07;1.40;;;29.00;75.30;;;;;;5055994;28;20147;-83
2023/09/06 09:59:49;;;;;;;3.65;1.58;;;29.10;73.60;;;;;;5054524;28;20094;-82
2023/09/06 10:02:17;;;;;;;5.13;1.45;;;29.10;72.80;;;;;;5054603;28;20037;-83
2023/09/06 10:04:44;;;;;;;2.45;1.42;;;29.20;71.50;;;;;;5054193;28;20029;-82
2023/09/06 10:07:13;;;;;;;2.55;1.60;;;29.20;71.20;;;;;;5054526;28;20478;-83
2023/09/06 10:09:40;;;;;;;5.35;1.55;;;29.10;71.10;;;;;;5055316;28;20048;-82
2023/09/06 10:12:11;;;;;;;2.75;1.58;;;29.20;72.10;;;;;;5056007;28;20486;-82
2023/09/06 10:14:41;;;;;;;2.25;1.23;;;29.30;70.90;;;;;;5037411;28;20021;-82
2023/09/06 10:17:08;;;;;;;3.83;1.52;;;29.30;71.60;;;;;;5054236;28;20064;-81
2023/09/06 10:19:38;;;;;;;2.65;1.67;;;29.50;70.90;;;;;;5054772;28;20119;-82
2023/09/06 10:22:12;;;;;;;6.13;2.10;;;29.60;71.00;;;;;;5055301;28;20032;-83
2023/09/06 10:24:39;;;;;;;4.80;1.92;;;29.70;70.60;;;;;;5038567;28;20029;-82
2023/09/06 10:27:11;;;;;;;4.78;1.90;;;29.80;70.00;;;;;;5055218;28;20036;-82
2023/09/06 10:29:49;;;;;;;;;;;29.90;68.90;;;;;;5054271;28;20527;-83
2023/09/06 10:32:15;;;;;;;5.18;1.58;;;30.00;69.00;;;;;;5055592;28;20038;-83
2023/09/06 10:34:48;;;;;;;6.82;1.90;;;30.10;69.40;;;;;;5055605;28;20036;-82
2023/09/06 10:37:15;;;;;;;5.32;2.40;;;30.10;68.20;;;;;;5037699;28;20043;-82
2023/09/06 10:40:02;;;;;;;5.93;2.13;;;30.20;69.40;;;;;;5037604;28;20469;-82
2023/09/06 10:42:28;;;;;;;4.30;1.63;;;30.20;68.60;;;;;;5056191;28;20025;-82
2023/09/06 10:44:54;;;;;;;9.38;2.30;;;30.40;68.20;;;;;;5055886;28;20029;-82
2023/09/06 10:47:34;;;;;;;3.97;1.95;;;30.40;70.10;;;;;;5055745;28;20033;-82
2023/09/06 10:50:20;;;;;;;4.72;1.70;;;30.60;68.50;;;;;;5055192;28;20032;-82
2023/09/06 10:53:11;;;;;;;3.72;1.27;;;30.80;67.90;;;;;;5055139;28;20053;-82
2023/09/06 10:55:47;;;;;;;5.15;1.83;;;30.80;67.30;;;;;;5055633;28;20543;-82
2023/09/06 10:58:13;;;;;;;2.60;1.73;;;30.90;68.20;;;;;;5056366;28;20462;-82
2023/09/06 11:00:40;;;;;;;6.35;1.85;;;30.90;67.20;;;;;;5037607;28;20044;-82
2023/09/06 11:03:06;;;;;;;2.38;1.50;;;30.90;67.40;;;;;;5055242;28;20358;-83
2023/09/06 11:05:39;;;;;;;4.13;1.65;;;31.00;66.30;;;;;;5055068;28;20032;-84
2023/09/06 11:08:08;;;;;;;4.72;1.65;;;31.00;62.30;;;;;;5036785;28;20032;-82
2023/09/06 11:10:35;;;;;;;2.97;1.88;;;31.00;61.50;;;;;;5054584;28;20032;-83
2023/09/06 11:13:11;;;;;;;2.95;1.83;;;31.00;61.40;;;;;;5055086;28;20032;-82
2023/09/06 11:15:38;;;;;;;5.72;1.70;;;31.00;64.00;;;;;;5036543;28;20049;-82
2023/09/06 11:18:05;;;;;;;3.30;1.38;;;31.10;63.40;;;;;;5054414;28;20084;-82
2023/09/06 11:20:32;;;;;;;3.70;1.60;;;31.20;64.20;;;;;;5054796;28;20079;-83
2023/09/06 11:22:59;;;;;;;4.28;1.50;;;31.30;64.00;;;;;;5056177;28;20032;-83
2023/09/06 11:25:27;;;;;;;3.95;1.80;;;31.40;64.90;;;;;;5056152;28;20025;-83
2023/09/06 11:27:58;;;;;;;4.18;1.70;;;31.60;64.00;;;;;;5056219;28;20020;-82
2023/09/06 11:30:26;;;;;;;2.45;1.40;;;31.60;64.40;;;;;;5056281;28;20033;-82
2023/09/06 11:32:56;;;;;;;4.43;1.92;;;31.70;64.00;;;;;;5054974;28;20021;-84
2023/09/06 11:35:27;;;;;;;4.50;1.70;;;31.60;62.70;;;;;;5054715;28;20033;-83
2023/09/06 11:37:55;;;;;;;5.00;1.67;;;31.70;63.40;;;;;;5054371;28;20402;-82
2023/09/06 11:40:27;;;;;;;4.35;1.77;;;31.70;63.10;;;;;;5054797;28;20062;-83
2023/09/06 11:42:56;;;;;;;3.47;1.85;;;31.80;61.40;;;;;;5054294;28;20040;-85
2023/09/06 11:45:23;;;;;;;3.20;1.90;;;31.90;60.80;;;;;;5037694;28;20190;-84
2023/09/06 11:47:52;;;;;;;5.43;1.73;;;31.90;63.20;;;;;;5053863;28;20033;-85
2023/09/06 11:50:21;;;;;;;4.68;2.22;;;31.90;62.60;;;;;;5053626;28;20445;-86
2023/09/06 11:52:53;;;;;;;2.60;1.70;;;32.00;62.10;;;;;;5052567;28;20053;-85
2023/09/06 11:55:22;;;;;;;;;;;32.20;62.30;;;;;;5053801;28;20445;-85
2023/09/06 11:57:52;;;;;;;2.75;1.88;;;32.30;63.00;;;;;;5054294;28;19955;-85
2023/09/06 12:00:36;;;;;;;2.65;1.65;;;32.40;60.80;;;;;;5053977;28;20416;-86
2023/09/06 12:03:07;;;;;;;5.78;2.10;;;32.40;61.70;;;;;;5053241;28;20025;-85
2023/09/06 12:05:40;;;;;;;3.85;1.65;;;32.50;60.10;;;;;;5035648;28;20424;-86
2023/09/06 12:08:07;;;;;;;4.50;1.77;;;32.50;60.90;;;;;;5036068;28;20037;-85
2023/09/06 12:10:38;;;;;;;4.00;1.65;;;32.60;59.90;;;;;;5053446;28;20029;-85
2023/09/06 12:13:06;;;;;;;3.15;1.90;;;32.70;59.40;;;;;;5053493;28;20453;-84
2023/09/06 12:15:33;;;;;;;3.47;1.85;;;32.70;58.10;;;;;;5054061;28;20120;-85
2023/09/06 12:17:59;;;;;;;2.97;1.60;;;32.80;57.50;;;;;;5053449;28;20091;-87
2023/09/06 12:20:27;;;;;;;4.35;2.00;;;32.90;58.80;;;;;;5035767;28;20118;-83
2023/09/06 12:22:53;;;;;;;6.03;1.88;;;32.90;59.20;;;;;;5054017;28;20424;-85
2023/09/06 12:25:20;;;;;;;5.53;2.00;;;32.90;58.70;;;;;;5053479;28;20024;-84
2023/09/06 12:27:47;;;;;;;3.05;2.00;;;32.90;59.60;;;;;;5053428;28;20492;-86
2023/09/06 12:30:14;;;;;;;3.90;1.70;;;33.00;58.90;;;;;;5053411;28;20358;-86
2023/09/06 12:32:40;;;;;;;3.20;2.00;;;33.10;59.40;;;;;;5053351;28;20389;-84
2023/09/06 12:35:07;;;;;;;5.80;2.03;;;33.10;59.30;;;;;;5053461;28;20484;-85
2023/09/06 12:37:37;;;;;;;4.07;1.88;;;33.30;59.30;;;;;;5053638;28;20046;-85
2023/09/06 12:40:13;;;;;;;3.85;1.40;;;33.30;58.80;;;;;;5053353;28;20033;-85
2023/09/06 12:42:43;;;;;;;4.63;1.48;;;33.50;59.40;;;;;;5052659;28;20037;-86
2023/09/06 12:45:16;;;;;;;4.30;1.65;;;33.60;58.70;;;;;;5053171;28;20495;-86
2023/09/06 12:47:42;;;;;;;3.08;2.10;;;33.70;59.10;;;;;;5053965;28;20044;-82
2023/09/06 12:50:08;;;;;;;4.00;2.03;;;33.70;59.20;;;;;;5053558;28;20025;-84
2023/09/06 12:52:35;;;;;;;4.10;1.55;;;33.80;58.80;;;;;;5052718;28;20478;-85